Volente, Texas
Current Conditions -  °F | °C
As of 2:15 AM on Thursday 27 Nov 2014 (Local Time) from KRYW Reporting Station
Clear Clear  
Wind Chill: 45°   Ceiling: Unl
Heat Index: 49°   Visibility: 10mi
Dew Point: 36°   Wind: 12mph
Humidity: 59%   Direction: 30°NNE
Pressure: 30.39"   Gusts: NA
Location:  30.558°N, 97.9247°W
Report Text: KRYW 270815Z AUTO 03010KT 10SM CLR 10/02 A3039 RMK AO2 T00960020
Loading
Personal Weather Stations






























Interactive Weather Map New forecast layout! Learn more

10-Day Weather Forecast

Advertisements
Track Severe Weather on mobile